Time;durP1;ratioP1;P1;durP2;ratioP2;P2;SDS_P1;SDS_P2;PMS_P1;PMS_P2;Temp;Humidity;BMP_temperature;BMP_pressure;BME280_temperature;BME280_humidity;BME280_pressure;Samples;Min_cycle;Max_cycle;Signal;HPM_P1;HPM_P2
2022/05/24 00:01:28;;;;;;;;;1.67;1.00;;;;;15.82;67.07;100195.31;5059182;28;45374;-51
2022/05/24 00:03:53;;;;;;;;;6.67;5.67;;;;;15.82;67.07;100181.06;5058906;28;45319;-52
2022/05/24 00:06:18;;;;;;;;;3.00;3.00;;;;;15.76;66.43;100196.09;5069547;28;45404;-50
2022/05/24 00:08:44;;;;;;;;;4.00;3.00;;;;;15.75;66.42;100181.00;5079579;28;45305;-52
2022/05/24 00:11:10;;;;;;;;;2.67;2.67;;;;;15.76;66.91;100193.41;5079396;28;46254;-53
2022/05/24 00:13:35;;;;;;;;;1.00;1.00;;;;;15.75;66.69;100201.63;5079291;28;45301;-52
2022/05/24 00:16:01;;;;;;;;;4.00;2.00;;;;;15.78;66.65;100223.53;5079546;28;45693;-52
2022/05/24 00:18:29;;;;;;;;;1.00;1.00;;;;;15.79;66.39;100219.00;5079393;28;45476;-51
2022/05/24 00:20:58;;;;;;;;;3.67;2.00;;;;;15.76;66.34;100240.84;5079054;28;47139;-53
2022/05/24 00:23:25;;;;;;;;;4.00;2.00;;;;;15.72;65.95;100240.41;5079121;28;45344;-54
2022/05/24 00:25:54;;;;;;;;;1.00;1.00;;;;;15.68;66.26;100247.19;5079316;28;45378;-53
2022/05/24 00:28:22;;;;;;;;;1.00;1.00;;;;;15.66;65.53;100238.47;5079258;28;45420;-55
2022/05/24 00:30:48;;;;;;;;;2.67;2.00;;;;;15.60;65.32;100223.97;5078871;28;47779;-52
2022/05/24 00:33:15;;;;;;;;;4.00;3.00;;;;;15.52;65.50;100218.75;5078887;28;45183;-51
2022/05/24 00:35:41;;;;;;;;;3.00;1.00;;;;;15.48;65.06;100220.13;5078609;28;45298;-50
2022/05/24 00:38:19;;;;;;;;;2.00;2.00;;;;;15.29;64.98;100208.19;5079275;28;45374;-52
2022/05/24 00:40:44;;;;;;;;;5.00;3.00;;;;;15.37;65.18;100207.25;5078928;28;46477;-50
2022/05/24 00:43:44;;;;;;;;;2.33;2.00;;;;;15.32;65.30;100196.25;5078685;28;45365;-50
2022/05/24 00:46:16;;;;;;;;;5.00;2.00;;;;;15.27;65.19;100204.88;5078966;28;45228;-54
2022/05/24 00:49:04;;;;;;;;;1.00;1.00;;;;;15.23;65.54;100204.44;5078844;28;45460;-51
2022/05/24 00:51:42;;;;;;;;;3.00;1.67;;;;;15.22;65.65;100199.28;5078635;28;45477;-51
2022/05/24 00:54:07;;;;;;;;;1.67;1.67;;;;;15.20;65.40;100209.34;5078639;28;45276;-50
2022/05/24 00:57:10;;;;;;;;;2.00;1.00;;;;;15.15;65.27;100201.03;5060537;28;45423;-51
2022/05/24 00:59:42;;;;;;;;;1.00;1.00;;;;;15.10;65.13;100198.09;5079198;28;45443;-51
2022/05/24 01:02:08;;;;;;;;;4.33;2.00;;;;;15.07;65.73;100201.97;5078400;28;46231;-46
2022/05/24 01:04:33;;;;;;;;;2.33;1.00;;;;;15.04;65.28;100198.84;5078302;28;45341;-51
2022/05/24 01:06:59;;;;;;;;;2.67;2.00;;;;;14.97;65.21;100207.66;5078479;28;45353;-53
2022/05/24 01:09:36;;;;;;;;;2.00;2.00;;;;;14.97;65.03;100209.50;5078598;28;45472;-49
2022/05/24 01:12:08;;;;;;;;;4.00;1.67;;;;;14.95;65.14;100214.19;5078383;28;46137;-50
2022/05/24 01:14:34;;;;;;;;;1.00;1.00;;;;;14.92;64.97;100222.63;5078460;28;45308;-51
2022/05/24 01:17:02;;;;;;;;;1.33;1.33;;;;;14.91;65.03;100218.28;5078274;28;45372;-49
2022/05/24 01:19:51;;;;;;;;;1.33;1.00;;;;;14.89;65.08;100220.31;5077674;28;45449;-50
2022/05/24 01:22:28;;;;;;;;;1.33;1.00;;;;;14.95;65.03;100232.94;5078051;28;46367;-49
2022/05/24 01:25:18;;;;;;;;;1.00;1.00;;;;;14.95;64.65;100231.09;5078339;28;45353;-50
2022/05/24 01:27:43;;;;;;;;;2.00;1.00;;;;;14.96;64.50;100229.28;5078265;28;45388;-48
2022/05/24 01:30:10;;;;;;;;;2.33;1.00;;;;;14.97;64.26;100237.09;5078375;28;45243;-49
2022/05/24 01:38:09;;;;;;;;;1.00;1.00;;;;;14.96;63.80;100227.41;5078038;28;45329;-47
2022/05/24 01:40:35;;;;;;;;;0.67;0.67;;;;;14.97;63.81;100230.94;5078324;28;45258;-50
2022/05/24 01:43:01;;;;;;;;;1.00;1.00;;;;;14.89;63.72;100209.59;5077738;28;46239;-48
2022/05/24 01:45:46;;;;;;;;;3.33;1.00;;;;;14.96;63.61;100224.75;5077839;28;45522;-51
2022/05/24 01:48:17;;;;;;;;;1.33;0.00;;;;;14.91;63.44;100218.28;5078115;28;45573;-49
2022/05/24 01:50:45;;;;;;;;;2.33;1.00;;;;;14.96;63.35;100234.63;5077906;28;45398;-52
2022/05/24 01:53:16;;;;;;;;;0.00;0.00;;;;;14.86;63.40;100220.69;5077696;28;47548;-50
2022/05/24 01:55:49;;;;;;;;;1.33;0.00;;;;;14.92;63.63;100238.69;5078250;28;45320;-51
2022/05/24 01:58:17;;;;;;;;;1.00;1.00;;;;;14.85;62.96;100235.09;5078288;28;45395;-51
2022/05/24 02:00:53;;;;;;;;;1.00;1.00;;;;;14.86;63.07;100242.94;5077961;28;45334;-52
2022/05/24 02:03:18;;;;;;;;;2.00;0.00;;;;;14.84;63.14;100258.38;5077538;28;45237;-51
2022/05/24 02:05:44;;;;;;;;;1.00;1.00;;;;;14.80;63.26;100249.06;5077378;28;45345;-48
2022/05/24 02:08:11;;;;;;;;;1.00;0.67;;;;;14.77;63.42;100245.91;5077718;28;45253;-51
2022/05/24 02:11:01;;;;;;;;;2.00;0.00;;;;;14.79;63.26;100249.22;5077886;28;45499;-51
2022/05/24 02:13:33;;;;;;;;;4.00;1.33;;;;;14.76;63.15;100244.25;5077318;28;46018;-52
2022/05/24 02:16:03;;;;;;;;;1.33;0.33;;;;;14.72;63.23;100244.63;5077469;28;45418;-52
2022/05/24 02:18:30;;;;;;;;;2.67;1.00;;;;;14.65;63.51;100235.66;5077411;28;45505;-51
2022/05/24 02:20:56;;;;;;;;;6.33;0.00;;;;;14.66;63.50;100229.31;5077369;28;45384;-51
2022/05/24 02:23:21;;;;;;;;;2.00;0.00;;;;;14.66;63.78;100236.50;5076979;28;47076;-48
2022/05/24 02:25:58;;;;;;;;;0.33;0.33;;;;;14.68;63.12;100245.19;5077209;28;45354;-48
2022/05/24 02:28:27;;;;;;;;;0.00;0.00;;;;;14.60;63.38;100232.72;5077700;28;45437;-48
2022/05/24 02:30:57;;;;;;;;;0.67;0.67;;;;;14.63;62.71;100234.19;5077645;28;45267;-48
2022/05/24 02:33:23;;;;;;;;;0.00;0.00;;;;;14.52;62.71;100232.81;5077252;28;45722;-50
2022/05/24 02:35:50;;;;;;;;;0.00;0.00;;;;;14.46;62.91;100230.84;5077016;28;45415;-49
2022/05/24 02:38:16;;;;;;;;;0.67;0.33;;;;;14.40;63.08;100232.41;5077554;28;45329;-49
2022/05/24 02:43:25;;;;;;;;;3.00;3.00;;;;;14.54;62.83;100254.03;5076901;28;45338;-50
2022/05/24 02:45:51;;;;;;;;;3.00;1.00;;;;;14.46;63.16;100238.88;5077303;28;45442;-48
2022/05/24 02:48:17;;;;;;;;;1.00;1.00;;;;;14.55;63.44;100253.03;5077248;28;45483;-50
2022/05/24 02:50:43;;;;;;;;;3.33;2.00;;;;;14.57;63.45;100253.66;5059158;28;45401;-50
2022/05/24 02:53:08;;;;;;;;;0.67;0.00;;;;;14.57;63.45;100259.84;5078041;28;46498;-47
2022/05/24 02:55:33;;;;;;;;;2.00;0.00;;;;;14.57;63.44;100264.38;5062096;28;45307;-53
2022/05/24 02:57:59;;;;;;;;;1.00;1.00;;;;;14.60;63.31;100267.50;5081092;28;45354;-48
2022/05/24 03:00:25;;;;;;;;;0.33;0.33;;;;;14.60;63.57;100270.19;5083473;28;45368;-51
2022/05/24 03:02:52;;;;;;;;;0.67;0.33;;;;;14.60;63.40;100261.34;5083627;28;46304;-48
2022/05/24 03:05:18;;;;;;;;;0.00;0.00;;;;;14.57;63.18;100259.84;5082581;28;45354;-48
2022/05/24 03:10:30;;;;;;;;;1.00;1.00;;;;;14.52;63.76;100270.28;5076930;28;45424;-49
2022/05/24 03:15:44;;;;;;;;;2.00;0.00;;;;;14.46;63.69;100287.06;5076848;28;45360;-48
2022/05/24 03:18:13;;;;;;;;;0.33;0.33;;;;;14.40;63.58;100285.91;5076879;28;45172;-48
2022/05/24 03:20:39;;;;;;;;;1.00;1.00;;;;;14.38;63.88;100287.97;5076817;28;45388;-50
2022/05/24 03:23:04;;;;;;;;;2.00;2.00;;;;;14.37;63.95;100283.63;5076443;28;46419;-49
2022/05/24 03:25:32;;;;;;;;;0.33;0.33;;;;;14.33;64.02;100276.97;5076286;28;45412;-52
2022/05/24 03:27:58;;;;;;;;;1.00;1.00;;;;;14.12;63.83;100244.75;5076813;28;45331;-49
2022/05/24 03:30:23;;;;;;;;;0.00;0.00;;;;;14.32;63.58;100285.16;5058838;28;45450;-48
2022/05/24 03:32:49;;;;;;;;;0.00;0.00;;;;;14.34;63.73;100304.56;5076547;28;45309;-48
2022/05/24 03:35:15;;;;;;;;;1.00;1.00;;;;;14.32;63.79;100303.91;5058223;28;45289;-51
2022/05/24 03:37:41;;;;;;;;;2.00;0.33;;;;;14.26;63.65;100304.63;5076630;28;45428;-49
2022/05/24 03:40:09;;;;;;;;;3.00;1.67;;;;;14.25;63.90;100308.34;5076688;28;45455;-49
2022/05/24 03:42:36;;;;;;;;;0.00;0.00;;;;;14.16;63.88;100300.38;5077973;28;45444;-54
2022/05/24 03:45:02;;;;;;;;;2.00;0.00;;;;;14.13;63.82;100298.06;5079956;28;45321;-50
2022/05/24 03:47:27;;;;;;;;;2.00;1.00;;;;;14.09;64.12;100302.09;5080118;28;45511;-53
2022/05/24 03:49:52;;;;;;;;;1.00;1.00;;;;;13.93;64.15;100292.38;5079870;28;45394;-49
2022/05/24 03:52:18;;;;;;;;;3.67;1.00;;;;;14.00;64.33;100327.25;5079648;28;45235;-51
2022/05/24 03:54:44;;;;;;;;;1.00;0.00;;;;;13.94;64.86;100322.59;5079531;28;45502;-58
2022/05/24 03:59:53;;;;;;;;;3.00;2.00;;;;;13.89;64.71;100338.38;5079833;28;45328;-54
2022/05/24 04:02:19;;;;;;;;;1.67;0.33;;;;;13.86;64.85;100346.72;5079523;28;46171;-49
2022/05/24 04:04:44;;;;;;;;;2.00;0.33;;;;;13.80;64.86;100340.25;5061201;28;45195;-50
2022/05/24 04:07:10;;;;;;;;;4.00;1.00;;;;;13.82;65.05;100346.28;5079302;28;45482;-49
2022/05/24 04:09:36;;;;;;;;;0.00;0.00;;;;;13.73;65.03;100332.09;5079814;28;45148;-48
2022/05/24 04:12:03;;;;;;;;;2.00;2.00;;;;;13.75;65.04;100337.28;5079459;28;46168;-47
2022/05/24 04:14:33;;;;;;;;;0.00;0.00;;;;;13.75;65.07;100350.66;5061262;28;45448;-50
2022/05/24 04:16:59;;;;;;;;;0.00;0.00;;;;;13.80;64.89;100355.47;5079307;28;45356;-48
2022/05/24 04:19:25;;;;;;;;;1.00;1.00;;;;;13.69;64.68;100344.19;5079528;28;45410;-49
2022/05/24 04:21:51;;;;;;;;;2.00;1.00;;;;;13.75;64.87;100355.19;5079117;28;46023;-50
2022/05/24 04:24:16;;;;;;;;;0.00;0.00;;;;;13.75;65.09;100345.31;5079319;28;45278;-50
2022/05/24 04:26:41;;;;;;;;;0.67;0.67;;;;;13.71;65.18;100358.19;5079429;28;45407;-49
2022/05/24 04:29:07;;;;;;;;;2.00;0.00;;;;;13.71;64.73;100354.69;5079412;28;45335;-49
2022/05/24 04:31:33;;;;;;;;;2.33;0.00;;;;;13.70;65.07;100361.06;5079095;28;46856;-48
2022/05/24 04:33:58;;;;;;;;;0.33;0.33;;;;;13.62;64.78;100351.25;5079094;28;45326;-48
2022/05/24 04:36:24;;;;;;;;;1.00;0.00;;;;;13.66;65.81;100376.59;5079085;28;45526;-50
2022/05/24 04:38:49;;;;;;;;;1.00;1.00;;;;;13.66;65.10;100381.97;5079366;28;45295;-52
2022/05/24 04:43:59;;;;;;;;;4.00;0.67;;;;;13.65;65.42;100382.09;5079004;28;45439;-49
2022/05/24 04:46:24;;;;;;;;;2.00;1.00;;;;;13.62;64.54;100388.66;5079085;28;45402;-51
2022/05/24 04:48:49;;;;;;;;;0.33;0.33;;;;;13.61;65.12;100389.69;5079039;28;45475;-52
2022/05/24 04:51:15;;;;;;;;;0.00;0.00;;;;;13.62;65.50;100394.00;5078489;28;46139;-49
2022/05/24 04:53:40;;;;;;;;;0.00;0.00;;;;;13.62;65.34;100399.34;5077854;28;45937;-52
2022/05/24 04:56:06;;;;;;;;;0.00;0.00;;;;;13.62;65.42;100396.69;5078815;28;45197;-52
2022/05/24 04:58:32;;;;;;;;;1.00;1.00;;;;;13.59;64.71;100388.16;5079245;28;45427;-48
2022/05/24 05:00:57;;;;;;;;;1.00;1.00;;;;;13.61;65.03;100405.72;5078599;28;45327;-51
2022/05/24 05:03:22;;;;;;;;;0.67;0.67;;;;;13.60;64.73;100404.03;5078707;28;45240;-49
2022/05/24 05:05:50;;;;;;;;;1.00;0.00;;;;;13.62;64.38;100410.03;5078420;28;45318;-52
2022/05/24 05:08:17;;;;;;;;;1.00;1.00;;;;;13.62;64.40;100411.88;5078834;28;45544;-48
2022/05/24 05:10:43;;;;;;;;;1.00;1.00;;;;;13.65;64.32;100412.38;5078562;28;46151;-49
2022/05/24 05:13:09;;;;;;;;;0.33;0.33;;;;;13.56;64.54;100393.84;5078346;28;45384;-50
2022/05/24 05:15:37;;;;;;;;;2.00;1.00;;;;;13.59;64.24;100402.38;5078400;28;45407;-48
2022/05/24 05:18:11;;;;;;;;;0.00;0.00;;;;;13.68;64.33;100417.34;5078693;28;45477;-51
2022/05/24 05:20:41;;;;;;;;;0.00;0.00;;;;;13.70;64.45;100419.88;5078143;28;46374;-49
2022/05/24 05:23:14;;;;;;;;;0.00;0.00;;;;;13.72;64.13;100425.84;5078174;28;45338;-52
2022/05/24 05:25:41;;;;;;;;;0.33;0.33;;;;;13.77;63.87;100430.66;5078256;28;45365;-50
2022/05/24 05:28:07;;;;;;;;;1.00;0.00;;;;;13.78;63.63;100432.34;5078540;28;45489;-52
2022/05/24 05:33:17;;;;;;;;;0.00;0.00;;;;;13.89;64.04;100446.16;5078651;28;45233;-53
2022/05/24 05:35:46;;;;;;;;;3.00;0.33;;;;;13.87;63.77;100421.44;5078208;28;45502;-48
2022/05/24 05:38:12;;;;;;;;;2.00;0.33;;;;;14.03;63.55;100449.94;5078379;28;45461;-49
2022/05/24 05:40:39;;;;;;;;;2.00;0.67;;;;;14.06;63.79;100440.72;5078229;28;45380;-52
2022/05/24 05:43:05;;;;;;;;;0.00;0.00;;;;;14.14;63.51;100443.34;5078442;28;45302;-51
2022/05/24 05:45:30;;;;;;;;;0.33;0.33;;;;;14.18;63.13;100453.50;5077962;28;45470;-48
2022/05/24 05:47:55;;;;;;;;;0.00;0.00;;;;;14.25;63.40;100459.00;5078224;28;45447;-49
2022/05/24 05:50:21;;;;;;;;;0.00;0.00;;;;;14.26;63.04;100449.13;5077744;28;46198;-48
2022/05/24 05:52:48;;;;;;;;;2.00;0.00;;;;;14.26;63.33;100462.50;5077955;28;45306;-53
2022/05/24 05:55:13;;;;;;;;;2.00;1.00;;;;;14.28;62.53;100471.97;5077771;28;45461;-51
2022/05/24 05:57:40;;;;;;;;;1.00;1.00;;;;;14.28;62.75;100471.97;5077807;28;45415;-49
2022/05/24 06:00:08;;;;;;;;;1.00;1.00;;;;;14.27;62.92;100474.84;5077506;28;46247;-50
2022/05/24 06:02:34;;;;;;;;;0.00;0.00;;;;;14.31;62.52;100476.16;5077578;28;45330;-51
2022/05/24 06:05:00;;;;;;;;;1.67;1.00;;;;;14.36;62.56;100484.47;5077621;28;45337;-47
2022/05/24 06:07:25;;;;;;;;;0.00;0.00;;;;;14.45;62.17;100488.75;5077734;28;45493;-50
2022/05/24 06:09:50;;;;;;;;;0.67;0.67;;;;;14.45;62.37;100488.75;5059376;28;46021;-50
2022/05/24 06:12:17;;;;;;;;;1.00;0.00;;;;;14.48;62.02;100491.09;5077514;28;45338;-48
2022/05/24 06:14:42;;;;;;;;;0.33;0.33;;;;;14.52;61.79;100503.13;5077755;28;45257;-47
2022/05/24 06:17:07;;;;;;;;;1.00;1.00;;;;;14.62;61.94;100497.53;5077689;28;45448;-49
2022/05/24 06:19:33;;;;;;;;;0.67;0.67;;;;;14.72;61.68;100501.66;5077506;28;46008;-51
2022/05/24 06:21:58;;;;;;;;;1.00;1.00;;;;;14.83;61.40;100496.88;5077510;28;45544;-50
2022/05/24 06:24:23;;;;;;;;;1.00;1.00;;;;;15.01;61.05;100499.25;5077100;28;45403;-47
2022/05/24 06:26:51;;;;;;;;;1.00;1.00;;;;;15.15;60.02;100507.28;5077579;28;45437;-48
2022/05/24 06:29:17;;;;;;;;;1.00;0.00;;;;;15.24;60.65;100494.66;5077283;28;46269;-47
2022/05/24 06:31:44;;;;;;;;;1.33;0.00;;;;;15.30;59.32;100506.50;5077233;28;45324;-50
2022/05/24 06:34:11;;;;;;;;;1.00;0.33;;;;;15.52;58.83;100515.47;5077269;28;45269;-49
2022/05/24 06:36:36;;;;;;;;;0.33;0.33;;;;;15.62;58.46;100514.16;5077323;28;45261;-51
2022/05/24 06:39:02;;;;;;;;;0.67;0.67;;;;;15.58;58.93;100522.78;5077086;28;45383;-50
2022/05/24 06:41:28;;;;;;;;;3.00;0.00;;;;;15.68;58.52;100518.84;5077261;28;45341;-48
2022/05/24 06:43:53;;;;;;;;;1.00;1.00;;;;;15.84;58.16;100519.66;5077137;28;45290;-48
2022/05/24 06:46:19;;;;;;;;;0.00;0.00;;;;;15.84;57.98;100519.66;5077495;28;45325;-49
2022/05/24 06:48:44;;;;;;;;;0.00;0.00;;;;;15.87;58.08;100521.97;5077137;28;46320;-50
2022/05/24 06:51:15;;;;;;;;;2.00;0.33;;;;;15.84;57.65;100530.38;5077055;28;45250;-50
2022/05/24 06:53:42;;;;;;;;;0.33;0.33;;;;;16.25;57.61;100529.84;5077163;28;45394;-49
2022/05/24 06:56:08;;;;;;;;;0.00;0.00;;;;;16.50;55.87;100519.59;5077319;28;45408;-51
2022/05/24 06:58:33;;;;;;;;;1.00;0.00;;;;;16.61;55.59;100535.22;5076808;28;46296;-51
2022/05/24 07:03:45;;;;;;;;;3.00;0.00;;;;;16.88;54.74;100542.53;5077160;28;45302;-48
2022/05/24 07:06:12;;;;;;;;;1.00;0.33;;;;;16.98;54.80;100544.03;5076739;28;45538;-51
2022/05/24 07:08:42;;;;;;;;;0.33;0.33;;;;;16.96;54.58;100542.41;5076663;28;45911;-49
2022/05/24 07:11:07;;;;;;;;;2.00;0.33;;;;;16.90;55.09;100548.56;5076785;28;45322;-48
2022/05/24 07:13:33;;;;;;;;;2.33;0.67;;;;;17.05;55.04;100545.78;5076876;28;45424;-47
2022/05/24 07:15:58;;;;;;;;;0.00;0.00;;;;;17.04;54.46;100545.97;5076817;28;45250;-46
2022/05/24 07:18:26;;;;;;;;;2.67;1.00;;;;;17.02;54.30;100562.28;5079576;28;45992;-47
2022/05/24 07:20:52;;;;;;;;;0.67;0.00;;;;;16.93;54.12;100556.22;5080105;28;45367;-50
2022/05/24 07:23:24;;;;;;;;;0.00;0.00;;;;;17.05;55.37;100563.75;5078976;28;45317;-49
2022/05/24 07:25:50;;;;;;;;;3.00;0.00;;;;;17.67;53.03;100563.00;5080570;28;45559;-48
2022/05/24 07:28:16;;;;;;;;;1.67;0.00;;;;;19.59;48.36;100492.50;5079899;28;45408;-48
2022/05/24 07:30:42;;;;;;;;;1.00;0.75;;;;;20.70;46.96;100550.88;5080010;28;45362;-46
2022/05/24 07:33:07;;;;;;;;;0.75;0.75;;;;;20.96;44.83;100553.38;5080229;28;45479;-50
2022/05/24 07:35:33;;;;;;;;;1.00;1.00;;;;;21.52;44.62;100555.19;5080483;28;45350;-48
2022/05/24 07:37:59;;;;;;;;;1.00;0.00;;;;;22.38;46.03;100534.44;5079881;28;46200;-48
2022/05/24 07:46:00;;;;;;;;;0.25;0.25;;;;;19.99;46.17;100543.69;5080132;28;45438;-49
2022/05/24 07:48:26;;;;;;;;;0.75;0.50;;;;;20.67;45.86;100561.03;5080138;28;45443;-51
2022/05/24 07:50:52;;;;;;;;;1.75;1.00;;;;;21.57;43.35;100555.34;5079846;28;45257;-49
2022/05/24 07:53:18;;;;;;;;;0.00;0.00;;;;;22.04;42.93;100552.16;5079820;28;45380;-48
2022/05/24 07:55:44;;;;;;;;;2.00;1.00;;;;;22.46;41.66;100549.53;5080127;28;45444;-49
2022/05/24 07:58:11;;;;;;;;;0.00;0.00;;;;;23.08;39.96;100544.69;5079671;28;47028;-49
2022/05/24 08:00:38;;;;;;;;;0.00;0.00;;;;;22.79;40.73;100541.75;5079656;28;45269;-50
2022/05/24 08:03:05;;;;;;;;;0.00;0.00;;;;;22.68;40.50;100577.81;5079731;28;45346;-49
2022/05/24 08:05:33;;;;;;;;;0.80;0.60;;;;;23.25;40.61;100552.94;5079817;28;45304;-51
2022/05/24 08:08:00;;;;;;;;;2.60;0.00;;;;;24.31;38.08;100546.34;5079529;28;45354;-50
2022/05/24 08:10:26;;;;;;;;;1.40;0.60;;;;;25.64;36.73;100554.88;5079543;28;45418;-49
2022/05/24 08:12:52;;;;;;;;;0.00;0.00;;;;;26.37;38.22;100546.53;5079747;28;45348;-49
2022/05/24 08:15:17;;;;;;;;;0.00;0.00;;;;;26.02;33.85;100547.78;5079695;28;45498;-49
2022/05/24 08:17:42;;;;;;;;;2.50;1.25;;;;;25.05;36.71;100557.22;5079038;28;46254;-50
2022/05/24 08:20:10;;;;;;;;;2.00;0.00;;;;;27.37;33.58;100544.22;5079833;28;45600;-50
2022/05/24 08:22:37;;;;;;;;;0.00;0.00;;;;;29.52;32.84;100542.88;5079508;28;45559;-50
2022/05/24 08:25:04;;;;;;;;;0.80;0.80;;;;;28.82;31.27;100537.13;5079452;28;45266;-49
2022/05/24 08:27:29;;;;;;;;;2.00;0.80;;;;;29.13;28.58;100537.19;5078787;28;45351;-49
2022/05/24 08:29:57;;;;;;;;;0.50;0.50;;;;;30.81;26.77;100540.13;5078966;28;45257;-49
2022/05/24 08:32:22;;;;;;;;;2.20;0.00;;;;;32.72;27.03;100524.72;5079167;28;45257;-50
2022/05/24 08:34:48;;;;;;;;;1.00;0.75;;;;;34.64;22.72;100541.69;5079138;28;45330;-50
2022/05/24 08:37:14;;;;;;;;;2.00;2.00;;;;;35.72;22.95;100538.63;5075699;28;46382;-48
2022/05/24 08:39:39;;;;;;;;;1.00;1.00;;;;;34.42;22.61;100543.25;5077838;28;45441;-51
2022/05/24 08:42:45;;;;;;;;;2.00;0.00;;;;;32.42;27.70;100537.03;5076332;28;45560;-49
2022/05/24 08:48:28;;;;;;;;;0.00;0.00;;;;;31.20;25.63;100555.72;5075819;28;45498;-49
2022/05/24 08:51:12;;;;;;;;;0.00;0.00;;;;;33.66;23.19;100548.44;5076038;28;45301;-49
2022/05/24 08:53:45;;;;;;;;;1.00;1.00;;;;;35.56;21.59;100551.25;5076037;28;45427;-50
2022/05/24 08:56:16;;;;;;;;;0.00;0.00;;;;;36.76;20.70;100524.13;5075616;28;45522;-52
2022/05/24 08:58:54;;;;;;;;;0.00;0.00;;;;;37.45;19.53;100550.91;5055512;28;46168;-50
2022/05/24 09:01:26;;;;;;;;;0.00;0.00;;;;;38.51;20.92;100550.81;5066369;28;45539;-51
2022/05/24 09:03:52;;;;;;;;;1.00;0.00;;;;;39.40;16.82;100548.50;5075744;28;45466;-51
2022/05/24 09:07:01;;;;;;;;;0.25;0.25;;;;;40.34;17.38;100543.94;5075757;28;45209;-49
2022/05/24 09:10:00;;;;;;;;;2.60;0.00;;;;;40.27;16.78;100547.31;5024095;28;46179;-48
2022/05/24 09:12:37;;;;;;;;;0.00;0.00;;;;;41.02;16.33;100546.72;5013277;28;45600;-51
2022/05/24 09:15:14;;;;;;;;;0.00;0.00;;;;;41.72;15.88;100540.56;5025512;28;45643;-48
2022/05/24 09:17:39;;;;;;;;;1.80;0.00;;;;;41.43;15.74;100536.25;5027107;28;45553;-51
2022/05/24 09:20:26;;;;;;;;;0.00;0.00;;;;;42.23;14.87;100548.97;5024307;28;46258;-50
2022/05/24 09:23:04;;;;;;;;;0.60;0.00;;;;;42.41;14.12;100524.16;5029849;28;45532;-50
2022/05/24 09:25:30;;;;;;;;;0.00;0.00;;;;;42.71;13.68;100543.97;5024029;28;45545;-49
2022/05/24 09:27:55;;;;;;;;;0.75;0.00;;;;;43.49;13.89;100546.63;5023164;28;45601;-49
2022/05/24 09:30:29;;;;;;;;;0.00;0.00;;;;;41.01;15.00;100538.72;5031928;28;46618;-46
2022/05/24 09:33:22;;;;;;;;;0.00;0.00;;;;;37.30;18.73;100546.72;5032840;28;45562;-47
2022/05/24 09:35:51;;;;;;;;;0.00;0.00;;;;;37.42;19.73;100557.97;5032436;28;45536;-48
2022/05/24 09:38:18;;;;;;;;;2.00;2.00;;;;;38.04;17.41;100547.38;5032639;28;45694;-50
2022/05/24 09:40:46;;;;;;;;;0.00;0.00;;;;;36.40;18.80;100552.94;5031762;28;47023;-49
2022/05/24 09:43:35;;;;;;;;;0.00;0.00;;;;;35.25;21.03;100552.06;5032542;28;45537;-52
2022/05/24 09:46:18;;;;;;;;;0.00;0.00;;;;;32.44;20.94;100561.50;5061391;28;46232;-48
2022/05/24 09:49:04;;;;;;;;;3.80;0.00;;;;;30.21;22.98;100565.97;5075346;28;45558;-49
2022/05/24 09:51:36;;;;;;;;;0.00;0.00;;;;;30.33;24.11;100567.28;5074929;28;46438;-51
2022/05/24 09:54:06;;;;;;;;;1.00;1.00;;;;;32.08;23.09;100566.66;5074766;28;45548;-51
2022/05/24 09:56:33;;;;;;;;;0.20;0.20;;;;;32.63;21.80;100578.03;5077870;28;45323;-48
2022/05/24 09:59:18;;;;;;;;;0.80;0.80;;;;;32.92;21.34;100564.94;5076513;28;45506;-48
2022/05/24 10:01:43;;;;;;;;;0.60;0.60;;;;;31.02;22.58;100572.91;5077770;28;46327;-49
2022/05/24 10:04:33;;;;;;;;;3.00;2.00;;;;;28.96;25.51;100573.03;5077541;28;45527;-50
2022/05/24 10:07:07;;;;;;;;;2.40;2.40;;;;;27.49;26.00;100585.00;5077327;28;45425;-50
2022/05/24 10:09:45;;;;;;;;;2.80;2.80;;;;;26.54;26.93;100581.94;5077684;28;45306;-50
2022/05/24 10:12:29;;;;;;;;;1.20;0.60;;;;;25.99;27.71;100589.16;5077579;28;45508;-51
2022/05/24 10:15:26;;;;;;;;;2.00;0.40;;;;;25.99;28.06;100585.63;5077461;28;45217;-47
2022/05/24 10:18:02;;;;;;;;;3.00;3.00;;;;;26.84;27.12;100590.47;5077666;28;45274;-48
2022/05/24 10:20:54;;;;;;;;;1.80;1.80;;;;;27.83;26.47;100577.31;5077681;28;45360;-51
2022/05/24 10:23:32;;;;;;;;;1.60;0.60;;;;;26.80;27.44;100591.22;5077200;28;47053;-50
2022/05/24 10:26:21;;;;;;;;;1.00;1.00;;;;;25.50;27.86;100585.47;5077202;28;45357;-50
2022/05/24 10:29:02;;;;;;;;;0.00;0.00;;;;;24.66;29.45;100593.53;5077327;28;45265;-48
2022/05/24 10:31:27;;;;;;;;;0.60;0.00;;;;;24.09;30.13;100584.22;5077489;28;45204;-50
2022/05/24 10:40:18;;;;;;;;;0.00;0.00;;;;;24.10;31.01;100596.75;5077207;28;46221;-51
2022/05/24 10:43:17;;;;;;;;;2.00;0.20;;;;;23.57;31.12;100597.72;5077304;28;45501;-49
2022/05/24 10:45:50;;;;;;;;;0.20;0.20;;;;;22.83;32.40;100605.31;5076951;28;47359;-49
2022/05/24 10:48:25;;;;;;;;;0.80;0.80;;;;;22.36;33.11;100604.31;5076950;28;45218;-48
2022/05/24 10:50:56;;;;;;;;;0.40;0.40;;;;;22.08;33.81;100608.38;5076883;28;45191;-50
2022/05/24 10:53:39;;;;;;;;;2.00;1.00;;;;;21.91;33.70;100604.56;5080277;28;45407;-48
2022/05/24 10:56:39;;;;;;;;;2.25;1.00;;;;;21.93;34.10;100606.00;5080465;28;46107;-48
2022/05/24 10:59:15;;;;;;;;;0.00;0.00;;;;;22.18;33.32;100599.72;5080606;28;45327;-48
2022/05/24 11:02:11;;;;;;;;;0.00;0.00;;;;;22.01;32.82;100601.34;5080678;28;45416;-47
2022/05/24 11:04:51;;;;;;;;;0.00;0.00;;;;;21.79;33.43;100600.97;5018185;28;45434;-49
2022/05/24 11:07:19;;;;;;;;;0.00;0.00;;;;;21.51;34.27;100612.28;5017773;28;46609;-48
2022/05/24 11:09:55;;;;;;;;;0.20;0.20;;;;;21.17;34.85;100606.25;5017760;28;45412;-48
2022/05/24 11:12:28;;;;;;;;;0.00;0.00;;;;;20.90;35.16;100600.22;5017809;28;45385;-48
2022/05/24 11:15:28;;;;;;;;;0.00;0.00;;;;;20.70;35.76;100594.94;5017948;28;45346;-49
2022/05/24 11:17:54;;;;;;;;;4.75;1.50;;;;;20.36;36.22;100594.25;5017361;28;45939;-48
2022/05/24 11:20:34;;;;;;;;;3.00;1.00;;;;;20.22;36.79;100603.44;5017727;28;45332;-48
2022/05/24 11:23:07;;;;;;;;;0.00;0.00;;;;;20.16;36.76;100607.81;5001754;28;45375;-51
2022/05/24 11:26:16;;;;;;;;;1.50;0.00;;;;;20.82;36.80;100603.19;5017616;28;45283;-48
2022/05/24 11:28:47;;;;;;;;;0.75;0.75;;;;;21.29;35.67;100607.22;4958210;28;45285;-50
2022/05/24 11:31:40;;;;;;;;;1.00;1.00;;;;;21.27;35.47;100589.53;4958361;28;45353;-50
2022/05/24 11:34:23;;;;;;;;;0.25;0.25;;;;;21.22;35.42;100602.91;4958522;28;45413;-48
2022/05/24 11:37:14;;;;;;;;;1.25;1.00;;;;;21.05;35.62;100594.50;4958539;28;45469;-47
2022/05/24 11:39:42;;;;;;;;;0.00;0.00;;;;;20.98;36.29;100597.22;4958145;28;46174;-49
2022/05/24 11:42:42;;;;;;;;;1.50;1.50;;;;;20.80;36.43;100603.38;5002980;28;45902;-49
2022/05/24 11:45:29;;;;;;;;;0.75;0.75;;;;;20.79;36.30;100601.75;5016257;28;45446;-49
2022/05/24 11:48:00;;;;;;;;;2.00;0.00;;;;;20.83;36.29;100607.53;5017908;28;45543;-51
2022/05/24 11:50:31;;;;;;;;;1.75;1.75;;;;;20.81;36.28;100596.09;5016291;28;46203;-47
2022/05/24 11:53:15;;;;;;;;;0.50;0.50;;;;;20.89;36.43;100596.66;5012267;28;45431;-49
2022/05/24 11:55:56;;;;;;;;;1.00;1.00;;;;;21.14;36.29;100595.88;5014445;28;45524;-46
2022/05/24 11:58:21;;;;;;;;;1.00;1.00;;;;;21.53;36.19;100599.31;5014387;28;45497;-50
2022/05/24 12:01:19;;;;;;;;;1.00;0.00;;;;;21.62;35.74;100596.13;5014272;28;47019;-49
2022/05/24 12:09:55;;;;;;;;;1.00;1.00;;;;;21.47;35.72;100592.09;5077077;28;45459;-50
2022/05/24 12:12:44;;;;;;;;;0.25;0.25;;;;;21.35;36.04;100598.22;5076319;28;47385;-51
2022/05/24 12:15:15;;;;;;;;;1.00;1.00;;;;;21.12;36.42;100600.69;5059707;28;45455;-49
2022/05/24 12:17:42;;;;;;;;;1.00;0.00;;;;;20.83;36.08;100575.09;5076535;28;45197;-49
2022/05/24 12:20:49;;;;;;;;;1.00;1.00;;;;;20.89;36.14;100601.25;5077252;28;45396;-51
2022/05/24 12:23:44;;;;;;;;;0.75;0.00;;;;;20.79;35.74;100607.16;5076182;28;46529;-51
2022/05/24 12:26:12;;;;;;;;;1.00;0.00;;;;;20.66;35.85;100605.34;5033549;28;45509;-51
2022/05/24 12:28:37;;;;;;;;;0.50;0.50;;;;;20.45;36.00;100608.34;5033599;28;45570;-52